createdAt,value
2018-08-30T00:00:21.707Z,0.00
2018-08-30T00:01:21.192Z,0.00
2018-08-30T00:02:21.661Z,0.00
2018-08-30T00:03:21.277Z,0.00
2018-08-30T00:04:43.371Z,0.00
2018-08-30T00:06:05.126Z,0.00
2018-08-30T00:07:27.165Z,0.00
2018-08-30T00:08:49.157Z,0.00
2018-08-30T00:09:49.746Z,0.00
2018-08-30T00:11:10.825Z,0.00
2018-08-30T00:12:11.398Z,0.00
2018-08-30T00:13:32.264Z,0.00
2018-08-30T00:14:54.262Z,0.00
2018-08-30T00:15:54.890Z,0.00
2018-08-30T00:16:54.561Z,0.00
2018-08-30T00:18:15.733Z,0.00
2018-08-30T00:19:16.534Z,0.00
2018-08-30T00:20:16.093Z,0.00
2018-08-30T00:21:16.602Z,0.00
2018-08-30T00:22:16.283Z,0.00
2018-08-30T00:23:15.817Z,0.00
2018-08-30T00:24:16.433Z,0.00
2018-08-30T00:25:15.879Z,0.00
2018-08-30T00:26:16.283Z,0.00
2018-08-30T00:27:37.168Z,0.00
2018-08-30T00:28:37.559Z,0.00
2018-08-30T00:29:38.063Z,0.00
2018-08-30T00:30:37.497Z,0.00
2018-08-30T00:31:37.907Z,0.00
2018-08-30T00:32:37.549Z,0.00
2018-08-30T00:33:38.113Z,0.00
2018-08-30T00:34:37.781Z,0.00
2018-08-30T00:35:37.381Z,0.00
2018-08-30T00:36:38.048Z,0.00
2018-08-30T00:37:37.719Z,0.00
2018-08-30T00:38:38.341Z,0.00
2018-08-30T00:39:37.962Z,0.00
2018-08-30T00:40:37.664Z,0.00
2018-08-30T00:41:58.793Z,0.00
2018-08-30T00:42:59.269Z,0.00
2018-08-30T00:43:59.609Z,0.00
2018-08-30T00:44:59.213Z,0.00
2018-08-30T00:45:59.169Z,0.00
2018-08-30T00:46:58.988Z,0.00
2018-08-30T00:47:59.609Z,0.00
2018-08-30T00:48:59.104Z,0.00
2018-08-30T00:49:58.739Z,0.00
2018-08-30T00:51:20.744Z,0.00
2018-08-30T00:52:21.327Z,0.00
2018-08-30T00:53:20.789Z,0.00
2018-08-30T00:54:21.358Z,0.00
2018-08-30T00:55:20.828Z,0.00
2018-08-30T00:56:21.260Z,0.00
2018-08-30T00:57:20.956Z,0.00
2018-08-30T00:58:21.427Z,0.00
2018-08-30T00:59:21.034Z,0.00
2018-08-30T01:00:21.576Z,0.00
2018-08-30T01:01:21.245Z,0.00
2018-08-30T01:02:21.047Z,0.00
2018-08-30T01:03:21.697Z,0.00
2018-08-30T01:04:21.333Z,0.00
2018-08-30T01:05:21.041Z,0.00
2018-08-30T01:07:06.372Z,0.00
2018-08-30T01:08:28.238Z,0.00
2018-08-30T01:09:28.880Z,0.00
2018-08-30T01:10:28.384Z,0.00
2018-08-30T01:11:28.910Z,0.00
2018-08-30T01:12:28.549Z,0.00
2018-08-30T01:13:29.087Z,0.00
2018-08-30T01:14:28.714Z,0.00
2018-08-30T01:15:29.294Z,0.00
2018-08-30T01:16:28.856Z,0.00
2018-08-30T01:17:28.346Z,0.00
2018-08-30T01:18:28.963Z,0.00
2018-08-30T01:19:28.536Z,0.00
2018-08-30T01:20:49.582Z,0.00
2018-08-30T01:21:50.505Z,0.00
2018-08-30T01:22:50.128Z,0.00
2018-08-30T01:23:49.652Z,0.00
2018-08-30T01:24:50.107Z,0.00
2018-08-30T01:25:49.561Z,0.00
2018-08-30T01:26:50.275Z,0.00
2018-08-30T01:27:49.921Z,0.00
2018-08-30T01:28:49.650Z,0.00
2018-08-30T01:29:50.384Z,0.00
2018-08-30T01:30:49.878Z,0.00
2018-08-30T01:32:11.934Z,0.00
2018-08-30T01:33:12.443Z,0.00
2018-08-30T01:34:11.893Z,0.00
2018-08-30T01:35:12.371Z,0.00
2018-08-30T01:36:11.812Z,0.00
2018-08-30T01:37:12.427Z,0.00
2018-08-30T01:38:12.143Z,0.00
2018-08-30T01:39:12.726Z,0.00
2018-08-30T01:40:12.362Z,0.00
2018-08-30T01:41:12.100Z,0.00
2018-08-30T01:42:12.718Z,0.00
2018-08-30T01:43:12.262Z,0.00
2018-08-30T01:44:12.577Z,0.00
2018-08-30T01:45:12.001Z,0.00
2018-08-30T01:46:12.511Z,0.00
2018-08-30T01:47:11.989Z,0.00
2018-08-30T01:48:12.528Z,0.00
2018-08-30T01:49:12.152Z,0.00
2018-08-30T01:50:33.742Z,0.00
2018-08-30T01:51:34.256Z,0.00
2018-08-30T01:52:34.446Z,0.00
2018-08-30T01:53:33.953Z,0.00
2018-08-30T01:54:34.914Z,0.00
2018-08-30T01:55:55.677Z,0.00
2018-08-30T01:57:17.374Z,0.00
2018-08-30T01:58:39.560Z,0.00
2018-08-30T01:59:40.281Z,0.00
2018-08-30T02:01:01.622Z,0.00
2018-08-30T02:02:02.062Z,0.00
2018-08-30T02:03:02.614Z,0.00
2018-08-30T02:04:02.245Z,0.00
2018-08-30T02:05:02.014Z,0.00
2018-08-30T02:06:01.851Z,0.00
2018-08-30T02:07:02.347Z,0.00
2018-08-30T02:08:01.641Z,0.00
2018-08-30T02:09:02.141Z,0.00
2018-08-30T02:10:01.879Z,0.00
2018-08-30T02:11:01.752Z,0.00
2018-08-30T02:12:02.495Z,0.00
2018-08-30T02:13:02.033Z,0.00
2018-08-30T02:14:02.577Z,0.00
2018-08-30T02:15:01.883Z,0.00
2018-08-30T02:16:02.531Z,0.00
2018-08-30T02:17:02.202Z,0.00
2018-08-30T02:18:01.652Z,0.00
2018-08-30T02:19:02.260Z,0.00
2018-08-30T02:20:22.963Z,0.00
2018-08-30T02:21:23.691Z,0.00
2018-08-30T02:22:23.258Z,0.00
2018-08-30T02:23:23.752Z,0.00
2018-08-30T02:24:23.471Z,0.00
2018-08-30T02:25:22.992Z,0.00
2018-08-30T02:26:23.722Z,0.00
2018-08-30T02:27:23.195Z,0.00
2018-08-30T02:28:22.783Z,0.00
2018-08-30T02:29:23.562Z,0.00
2018-08-30T02:30:23.115Z,0.00
2018-08-30T02:31:45.443Z,0.00
2018-08-30T02:32:46.300Z,0.00
2018-08-30T02:33:46.170Z,0.00
2018-08-30T02:34:45.762Z,0.00
2018-08-30T02:35:45.237Z,0.00
2018-08-30T02:36:46.111Z,0.00
2018-08-30T02:37:45.997Z,0.00
2018-08-30T02:39:07.429Z,0.00
2018-08-30T02:40:28.799Z,0.00
2018-08-30T02:41:29.626Z,0.00
2018-08-30T02:42:29.360Z,0.00
2018-08-30T02:43:29.214Z,0.00
2018-08-30T02:44:28.926Z,0.00
2018-08-30T02:45:29.619Z,0.00
2018-08-30T02:46:29.261Z,0.00
2018-08-30T02:47:30.107Z,0.00
2018-08-30T02:48:29.944Z,0.00
2018-08-30T02:49:29.756Z,0.00
2018-08-30T02:50:29.440Z,0.00
2018-08-30T02:51:50.655Z,0.00
2018-08-30T02:52:51.304Z,0.00
2018-08-30T02:53:51.206Z,0.00
2018-08-30T02:54:50.605Z,0.00
2018-08-30T02:55:51.499Z,0.00
2018-08-30T02:56:51.119Z,0.00
2018-08-30T02:57:50.815Z,0.00
2018-08-30T02:58:51.447Z,0.00
2018-08-30T02:59:50.977Z,0.00
2018-08-30T03:00:50.668Z,0.00
2018-08-30T03:02:02.023Z,0.00
2018-08-30T03:02:51.027Z,0.00
2018-08-30T03:03:50.583Z,0.00
2018-08-30T03:04:51.102Z,0.00
2018-08-30T03:05:50.745Z,0.00
2018-08-30T03:07:21.459Z,0.00
2018-08-30T03:08:22.343Z,0.00
2018-08-30T03:09:22.075Z,0.00
2018-08-30T03:10:43.341Z,0.00
2018-08-30T03:11:44.041Z,0.00
2018-08-30T03:12:43.777Z,0.00
2018-08-30T03:13:43.404Z,0.00
2018-08-30T03:14:43.852Z,0.00
2018-08-30T03:15:43.600Z,0.00
2018-08-30T03:16:44.080Z,0.00
2018-08-30T03:17:43.762Z,0.00
2018-08-30T03:18:43.513Z,0.00
2018-08-30T03:19:44.295Z,0.00
2018-08-30T03:20:43.867Z,0.00
2018-08-30T03:21:43.643Z,0.00
2018-08-30T03:23:05.663Z,0.00
2018-08-30T03:24:06.572Z,0.00
2018-08-30T03:25:27.418Z,0.00
2018-08-30T03:26:27.982Z,0.00
2018-08-30T03:27:28.461Z,0.00
2018-08-30T03:28:28.224Z,0.00
2018-08-30T03:29:27.838Z,0.00
2018-08-30T03:30:28.770Z,0.00
2018-08-30T03:31:49.993Z,0.00
2018-08-30T03:32:50.608Z,0.00
2018-08-30T03:33:50.212Z,0.00
2018-08-30T03:34:49.743Z,0.00
2018-08-30T03:36:11.453Z,0.00
2018-08-30T03:37:12.180Z,0.00
2018-08-30T03:38:11.908Z,0.00
2018-08-30T03:39:11.864Z,0.00
2018-08-30T03:40:12.336Z,0.00
2018-08-30T03:41:11.863Z,0.00
2018-08-30T03:42:11.511Z,0.00
2018-08-30T03:43:12.152Z,0.00
2018-08-30T03:44:12.194Z,0.00
2018-08-30T03:45:11.715Z,0.00
2018-08-30T03:46:33.741Z,0.00
2018-08-30T03:47:34.322Z,0.00
2018-08-30T03:48:55.405Z,0.00
2018-08-30T03:49:55.914Z,0.00
2018-08-30T03:50:55.751Z,0.00
2018-08-30T03:51:55.365Z,0.00
2018-08-30T03:52:56.175Z,0.00
2018-08-30T03:53:56.029Z,0.00
2018-08-30T03:54:55.632Z,0.00
2018-08-30T03:55:55.307Z,0.00
2018-08-30T03:56:55.949Z,0.00
2018-08-30T03:57:55.434Z,0.00
2018-08-30T03:58:55.015Z,1.00
2018-08-30T03:59:55.587Z,1.00
2018-08-30T04:01:16.675Z,1.00
2018-08-30T04:02:38.951Z,1.00
2018-08-30T04:03:39.533Z,1.00
2018-08-30T04:04:39.960Z,1.00
2018-08-30T04:05:39.616Z,2.00
2018-08-30T04:06:39.300Z,2.00
2018-08-30T04:08:00.635Z,3.00
2018-08-30T04:09:22.908Z,2.00
2018-08-30T04:10:44.394Z,5.00
2018-08-30T04:11:45.307Z,4.00
2018-08-30T04:13:06.546Z,3.00
2018-08-30T04:14:07.513Z,4.00
2018-08-30T04:15:07.073Z,6.00
2018-08-30T04:16:06.836Z,6.00
2018-08-30T04:17:06.466Z,8.00
2018-08-30T04:18:06.991Z,10.00
2018-08-30T04:19:49.498Z,11.00
2018-08-30T04:20:50.100Z,17.00
2018-08-30T04:21:49.701Z,18.00
2018-08-30T04:22:50.259Z,22.00
2018-08-30T04:23:49.928Z,27.00
2018-08-30T04:24:49.969Z,29.00
2018-08-30T04:25:49.704Z,35.00
2018-08-30T04:26:50.647Z,35.00
2018-08-30T04:27:50.343Z,37.00
2018-08-30T04:28:50.017Z,45.00
2018-08-30T04:29:49.810Z,56.00
2018-08-30T04:30:50.294Z,52.00
2018-08-30T04:31:49.911Z,54.00
2018-08-30T04:32:49.686Z,58.00
2018-08-30T04:33:50.417Z,75.00
2018-08-30T04:35:11.747Z,80.00
2018-08-30T04:36:12.541Z,84.00
2018-08-30T04:37:12.029Z,82.00
2018-08-30T04:38:12.709Z,94.00
2018-08-30T04:39:12.319Z,92.00
2018-08-30T04:40:12.176Z,114.00
2018-08-30T04:41:12.055Z,135.00
2018-08-30T04:42:11.873Z,198.00
2018-08-30T04:43:12.479Z,264.00
2018-08-30T04:44:12.050Z,337.00
2018-08-30T04:45:12.670Z,334.00
2018-08-30T04:46:12.462Z,310.00
2018-08-30T04:47:12.210Z,328.00
2018-08-30T04:48:12.153Z,429.00
2018-08-30T04:49:12.715Z,426.00
2018-08-30T04:50:12.444Z,455.00
2018-08-30T04:52:16.252Z,604.00
2018-08-30T04:53:16.804Z,670.00
2018-08-30T04:54:16.862Z,767.00
2018-08-30T04:55:38.149Z,764.00
2018-08-30T04:56:38.813Z,678.00
2018-08-30T04:57:38.451Z,748.00
2018-08-30T04:58:38.869Z,788.00
2018-08-30T05:00:22.425Z,605.00
2018-08-30T05:01:22.426Z,569.00
2018-08-30T05:02:22.193Z,613.00
2018-08-30T05:03:22.789Z,570.00
2018-08-30T05:04:44.364Z,505.00
2018-08-30T05:05:45.008Z,500.00
2018-08-30T05:06:45.386Z,591.00
2018-08-30T05:07:45.333Z,992.00
2018-08-30T05:08:45.141Z,1387.00
2018-08-30T05:10:50.107Z,1303.00
2018-08-30T05:11:50.770Z,1626.00
2018-08-30T05:12:50.810Z,1847.00
2018-08-30T05:13:50.436Z,1815.00
2018-08-30T05:14:50.085Z,1369.00
2018-08-30T05:15:50.873Z,1241.00
2018-08-30T05:16:50.947Z,1369.00
2018-08-30T05:17:50.912Z,1272.00
2018-08-30T05:18:50.917Z,1219.00
2018-08-30T05:19:50.534Z,1143.00
2018-08-30T05:20:50.406Z,1134.00
2018-08-30T05:21:50.045Z,1252.00
2018-08-30T05:22:49.912Z,1230.00
2018-08-30T05:23:50.679Z,1226.00
2018-08-30T05:24:50.447Z,1454.00
2018-08-30T05:25:50.308Z,1544.00
2018-08-30T05:26:50.670Z,1769.00
2018-08-30T05:27:51.250Z,2851.00
2018-08-30T05:28:50.108Z,3330.00
2018-08-30T05:29:50.681Z,3907.00
2018-08-30T05:30:52.491Z,4031.00
2018-08-30T05:31:50.172Z,3584.00
2018-08-30T05:33:11.631Z,3558.00
2018-08-30T05:34:13.677Z,2858.00
2018-08-30T05:35:11.595Z,2928.00
2018-08-30T05:36:12.399Z,3330.00
2018-08-30T05:37:13.667Z,3525.00
2018-08-30T05:38:11.494Z,2762.00
2018-08-30T05:39:36.171Z,3211.00
2018-08-30T05:40:36.114Z,2982.00
2018-08-30T05:41:37.148Z,2394.00
2018-08-30T05:42:37.041Z,2483.00
2018-08-30T05:43:59.174Z,3083.00
2018-08-30T05:44:58.931Z,2614.00
2018-08-30T05:45:58.732Z,3319.00
2018-08-30T05:47:20.818Z,3327.00
2018-08-30T05:48:21.784Z,2341.00
2018-08-30T05:49:21.618Z,1818.00
2018-08-30T05:50:21.511Z,1652.00
2018-08-30T05:51:21.281Z,1572.00
2018-08-30T05:52:21.867Z,1420.00
2018-08-30T05:53:21.895Z,1462.00
2018-08-30T05:54:21.728Z,1427.00
2018-08-30T05:55:21.556Z,1538.00
2018-08-30T05:56:21.203Z,1593.00
2018-08-30T05:57:21.587Z,1749.00
2018-08-30T05:58:21.497Z,1941.00
2018-08-30T06:00:27.118Z,1980.00
2018-08-30T06:01:28.959Z,1920.00
2018-08-30T06:02:27.500Z,2087.00
2018-08-30T06:03:27.469Z,2009.00
2018-08-30T06:04:27.494Z,2160.00
2018-08-30T06:05:27.407Z,2269.00
2018-08-30T06:06:49.145Z,2744.00
2018-08-30T06:07:50.016Z,2770.00
2018-08-30T06:08:49.787Z,2464.00
2018-08-30T06:09:49.557Z,1884.00
2018-08-30T06:10:49.386Z,1841.00
2018-08-30T06:11:49.114Z,1711.00
2018-08-30T06:12:50.192Z,1689.00
2018-08-30T06:13:49.879Z,1857.00
2018-08-30T06:14:50.636Z,1700.00
2018-08-30T06:15:49.747Z,1485.00
2018-08-30T06:16:50.676Z,1591.00
2018-08-30T06:17:49.781Z,2091.00
2018-08-30T06:21:00.193Z,1711.00
2018-08-30T06:22:01.548Z,1515.00
2018-08-30T06:23:00.684Z,1640.00
2018-08-30T06:24:00.352Z,1969.00
2018-08-30T06:25:23.040Z,2379.00
2018-08-30T06:26:23.614Z,2277.00
2018-08-30T06:27:23.346Z,2612.00
2018-08-30T06:28:23.242Z,2508.00
2018-08-30T06:29:23.272Z,2256.00
2018-08-30T06:30:45.001Z,2083.00
2018-08-30T06:31:45.027Z,1890.00
2018-08-30T06:32:45.228Z,1590.00
2018-08-30T06:33:45.361Z,1854.00
2018-08-30T06:34:45.357Z,2026.00
2018-08-30T06:35:45.545Z,2259.00
2018-08-30T06:37:12.004Z,3708.00
2018-08-30T06:38:13.140Z,4723.00
2018-08-30T06:39:12.411Z,5928.00
2018-08-30T06:40:32.534Z,4653.00
2018-08-30T06:41:33.235Z,5048.00
2018-08-30T06:42:33.418Z,5886.00
2018-08-30T06:43:33.615Z,5542.00
2018-08-30T06:44:32.905Z,6122.00
2018-08-30T06:45:56.378Z,4458.00
2018-08-30T06:46:57.118Z,3542.00
2018-08-30T06:47:56.882Z,3285.00
2018-08-30T06:49:18.589Z,4030.00
2018-08-30T06:50:19.475Z,4540.00
2018-08-30T06:51:22.133Z,4193.00
2018-08-30T06:52:19.292Z,3829.00
2018-08-30T06:53:19.856Z,3758.00
2018-08-30T06:54:43.431Z,4302.00
2018-08-30T06:55:44.207Z,4394.00
2018-08-30T06:56:43.529Z,4150.00
2018-08-30T06:57:43.108Z,4609.00
2018-08-30T06:59:04.769Z,6209.00
2018-08-30T07:00:05.637Z,4625.00
2018-08-30T07:01:05.611Z,5440.00
2018-08-30T07:02:05.476Z,5452.00
2018-08-30T07:03:05.553Z,7410.00
2018-08-30T07:04:51.359Z,4929.00
2018-08-30T07:05:51.272Z,5736.00
2018-08-30T07:07:16.362Z,6415.00
2018-08-30T07:08:16.400Z,7154.00
2018-08-30T07:09:16.245Z,8220.00
2018-08-30T07:10:17.045Z,8935.00
2018-08-30T07:11:16.766Z,7374.00
2018-08-30T07:12:16.514Z,7291.00
2018-08-30T07:13:16.722Z,7918.00
2018-08-30T07:14:16.506Z,6276.00
2018-08-30T07:16:01.447Z,5305.00
2018-08-30T07:17:02.322Z,4039.00
2018-08-30T07:18:02.303Z,4191.00
2018-08-30T07:19:02.182Z,4938.00
2018-08-30T07:20:02.067Z,3940.00
2018-08-30T07:21:01.901Z,4334.00
2018-08-30T07:22:23.084Z,4593.00
2018-08-30T07:23:45.741Z,4382.00
2018-08-30T07:24:45.867Z,4449.00
2018-08-30T07:25:45.905Z,5767.00
2018-08-30T07:26:45.472Z,5678.00
2018-08-30T07:27:45.395Z,6622.00
2018-08-30T07:28:46.520Z,9540.00
2018-08-30T07:29:46.415Z,9534.00
2018-08-30T07:30:46.321Z,11403.00
2018-08-30T07:31:46.666Z,9453.00
2018-08-30T07:32:45.944Z,12480.00
2018-08-30T07:33:45.701Z,14969.00
2018-08-30T07:34:45.930Z,12592.00
2018-08-30T07:36:07.111Z,14418.00
2018-08-30T07:37:29.935Z,15878.00
2018-08-30T07:38:31.193Z,16214.00
2018-08-30T07:39:30.080Z,14217.00
2018-08-30T07:40:30.900Z,15192.00
2018-08-30T07:41:31.333Z,16151.00
2018-08-30T07:42:30.041Z,13806.00
2018-08-30T07:43:30.627Z,13119.00
2018-08-30T07:44:53.983Z,18208.00
2018-08-30T07:45:54.693Z,15436.00
2018-08-30T07:47:22.424Z,14831.00
2018-08-30T07:48:41.221Z,16479.00
2018-08-30T07:49:41.768Z,20152.00
2018-08-30T07:50:42.349Z,22296.00
2018-08-30T07:51:41.540Z,21736.00
2018-08-30T07:52:41.377Z,24176.00
2018-08-30T07:53:41.282Z,22872.00
2018-08-30T07:55:02.688Z,17920.00
2018-08-30T07:56:03.543Z,23600.00
2018-08-30T07:57:03.300Z,27472.00
2018-08-30T07:58:02.949Z,29752.00
2018-08-30T07:59:02.956Z,26832.00
2018-08-30T08:00:03.145Z,29808.00
2018-08-30T08:01:03.431Z,32984.00
2018-08-30T08:02:46.099Z,30592.00
2018-08-30T08:04:08.447Z,26456.00
2018-08-30T08:05:31.248Z,28464.00
2018-08-30T08:06:31.352Z,27976.00
2018-08-30T08:08:14.755Z,22168.00
2018-08-30T08:09:15.908Z,21968.00
2018-08-30T08:10:14.925Z,23072.00
2018-08-30T08:11:15.093Z,24088.00
2018-08-30T08:12:15.244Z,24032.00
2018-08-30T08:13:15.145Z,19696.00
2018-08-30T08:14:15.076Z,21736.00
2018-08-30T08:15:14.955Z,28760.00
2018-08-30T08:16:14.585Z,27984.00
2018-08-30T08:17:15.524Z,30480.00
2018-08-30T08:18:36.929Z,32912.00
2018-08-30T08:19:37.564Z,31232.00
2018-08-30T08:20:37.388Z,30632.00
2018-08-30T08:21:37.137Z,27032.00
2018-08-30T08:22:37.397Z,19472.00
2018-08-30T08:23:37.218Z,19536.00
2018-08-30T08:24:36.994Z,19000.00
2018-08-30T08:25:37.930Z,18120.00
2018-08-30T08:26:59.822Z,18808.00
2018-08-30T08:28:00.486Z,22400.00
2018-08-30T08:29:00.681Z,24288.00
2018-08-30T08:29:59.779Z,34952.00
2018-08-30T08:30:59.863Z,33784.00
2018-08-30T08:33:04.585Z,29656.00
2018-08-30T08:34:04.909Z,28656.00
2018-08-30T08:35:05.009Z,53232.00
2018-08-30T08:36:04.945Z,30136.00
2018-08-30T08:37:05.033Z,62136.00
2018-08-30T08:38:04.937Z,28744.00
2018-08-30T08:39:05.008Z,33112.00
2018-08-30T08:40:05.031Z,32272.00
2018-08-30T08:41:26.962Z,48056.00
2018-08-30T08:42:26.711Z,38128.00
2018-08-30T08:43:28.103Z,42584.00
2018-08-30T08:44:27.329Z,30568.00
2018-08-30T08:45:26.815Z,44184.00
2018-08-30T08:46:26.502Z,20776.00
2018-08-30T08:47:27.275Z,27872.00
2018-08-30T08:48:26.818Z,34568.00
2018-08-30T08:49:26.610Z,28400.00
2018-08-30T08:50:27.379Z,28552.00
2018-08-30T08:51:27.168Z,27344.00
2018-08-30T08:52:27.096Z,29792.00
2018-08-30T08:53:26.901Z,24280.00
2018-08-30T08:54:26.604Z,23120.00
2018-08-30T08:55:27.686Z,17920.00
2018-08-30T08:56:27.333Z,17816.00
2018-08-30T08:57:48.979Z,33016.00
2018-08-30T08:59:10.327Z,26256.00
2018-08-30T09:00:31.825Z,27760.00
2018-08-30T09:01:32.860Z,26920.00
2018-08-30T09:02:33.068Z,18496.00
2018-08-30T09:03:31.766Z,20920.00
2018-08-30T09:04:32.881Z,24088.00
2018-08-30T09:05:32.965Z,35456.00
2018-08-30T09:06:53.293Z,39752.00
2018-08-30T09:07:53.869Z,25952.00
2018-08-30T09:08:53.700Z,18864.00
2018-08-30T09:09:53.813Z,18744.00
2018-08-30T09:10:53.705Z,24272.00
2018-08-30T09:11:53.987Z,29392.00
2018-08-30T09:12:54.202Z,33048.00
2018-08-30T09:13:54.443Z,36560.00
2018-08-30T09:15:16.400Z,36096.00
2018-08-30T09:16:46.720Z,22848.00
2018-08-30T09:18:05.388Z,23376.00
2018-08-30T09:19:10.056Z,25072.00
2018-08-30T09:20:28.196Z,23760.00
2018-08-30T09:21:52.173Z,35696.00
2018-08-30T09:22:52.361Z,65535.00
2018-08-30T09:23:52.310Z,65535.00
2018-08-30T09:24:52.671Z,57056.00
2018-08-30T09:25:53.009Z,65535.00
2018-08-30T09:26:51.953Z,65535.00
2018-08-30T09:27:52.096Z,58304.00
2018-08-30T09:28:52.115Z,65535.00
2018-08-30T09:29:52.538Z,65535.00
2018-08-30T09:31:37.004Z,65535.00
2018-08-30T09:32:37.210Z,65535.00
2018-08-30T09:33:37.895Z,65535.00
2018-08-30T09:34:59.787Z,43976.00
2018-08-30T09:35:59.856Z,29160.00
2018-08-30T09:37:00.096Z,35704.00
2018-08-30T09:37:59.926Z,35320.00
2018-08-30T09:38:59.860Z,41656.00
2018-08-30T09:39:59.829Z,65535.00
2018-08-30T09:41:21.283Z,31400.00
2018-08-30T09:42:22.375Z,65535.00
2018-08-30T09:43:22.433Z,65535.00
2018-08-30T09:44:21.433Z,32240.00
2018-08-30T09:45:21.582Z,65535.00
2018-08-30T09:46:21.511Z,65535.00
2018-08-30T09:47:21.387Z,65535.00
2018-08-30T09:48:21.474Z,53960.00
2018-08-30T09:49:21.318Z,35472.00
2018-08-30T09:50:21.107Z,25400.00
2018-08-30T09:51:22.136Z,28344.00
2018-08-30T09:52:22.334Z,31736.00
2018-08-30T09:53:22.383Z,65535.00
2018-08-30T09:54:21.447Z,65535.00
2018-08-30T09:55:21.232Z,35296.00
2018-08-30T09:56:22.373Z,37896.00
2018-08-30T09:57:21.479Z,57456.00
2018-08-30T09:58:21.539Z,25856.00
2018-08-30T09:59:21.066Z,48864.00
2018-08-30T10:00:22.050Z,65535.00
2018-08-30T10:01:22.313Z,65535.00
2018-08-30T10:02:21.593Z,65535.00
2018-08-30T10:03:21.629Z,65535.00
2018-08-30T10:04:21.438Z,64192.00
2018-08-30T10:05:43.283Z,20184.00
2018-08-30T10:06:44.515Z,65535.00
2018-08-30T10:08:05.172Z,65535.00
2018-08-30T10:09:27.919Z,65535.00
2018-08-30T10:10:48.979Z,65535.00
2018-08-30T10:11:49.563Z,65535.00
2018-08-30T10:12:49.581Z,65535.00
2018-08-30T10:13:49.512Z,65535.00
2018-08-30T10:14:49.394Z,65535.00
2018-08-30T10:15:49.668Z,65535.00
2018-08-30T10:16:50.174Z,65535.00
2018-08-30T10:18:11.755Z,31048.00
2018-08-30T10:19:12.790Z,65535.00
2018-08-30T10:20:12.511Z,35936.00
2018-08-30T10:21:12.509Z,65535.00
2018-08-30T10:22:12.562Z,65535.00
2018-08-30T10:23:35.744Z,30896.00
2018-08-30T10:24:36.541Z,65535.00
2018-08-30T10:25:41.136Z,35368.00
2018-08-30T10:26:58.655Z,65535.00
2018-08-30T10:27:59.373Z,59880.00
2018-08-30T10:28:59.703Z,37696.00
2018-08-30T10:29:58.881Z,35944.00
2018-08-30T10:30:59.020Z,65535.00
2018-08-30T10:32:05.862Z,25656.00
2018-08-30T10:32:59.743Z,25392.00
2018-08-30T10:34:30.267Z,30408.00
2018-08-30T10:35:31.015Z,65535.00
2018-08-30T10:36:30.928Z,65535.00
2018-08-30T10:37:31.083Z,65535.00
2018-08-30T10:38:30.639Z,61792.00
2018-08-30T10:39:30.825Z,32368.00
2018-08-30T10:40:32.723Z,65535.00
2018-08-30T10:41:31.377Z,28264.00
2018-08-30T10:42:31.544Z,35216.00
2018-08-30T10:43:33.581Z,65535.00
2018-08-30T10:44:32.244Z,60368.00
2018-08-30T10:45:30.408Z,29352.00
2018-08-30T10:46:32.718Z,65535.00
2018-08-30T10:47:31.256Z,65535.00
2018-08-30T10:48:31.021Z,65535.00
2018-08-30T10:49:31.589Z,65535.00
2018-08-30T10:50:30.962Z,58920.00
2018-08-30T10:51:30.703Z,65535.00
2018-08-30T10:52:30.733Z,65535.00
2018-08-30T10:53:32.202Z,29160.00
2018-08-30T10:54:31.093Z,26360.00
2018-08-30T10:55:36.652Z,17720.00
2018-08-30T10:56:37.017Z,16746.00
2018-08-30T10:57:36.690Z,19272.00
2018-08-30T10:58:36.248Z,65535.00
2018-08-30T10:59:31.446Z,65535.00
2018-08-30T11:00:53.312Z,65535.00
2018-08-30T11:01:52.600Z,36048.00
2018-08-30T11:02:52.292Z,32768.00
2018-08-30T11:03:52.425Z,30992.00
2018-08-30T11:04:53.296Z,30232.00
2018-08-30T11:05:52.304Z,31568.00
2018-08-30T11:06:53.848Z,29448.00
2018-08-30T11:07:52.669Z,65535.00
2018-08-30T11:09:37.754Z,25208.00
2018-08-30T11:10:37.393Z,27240.00
2018-08-30T11:11:38.575Z,29800.00
2018-08-30T11:12:37.247Z,65535.00
2018-08-30T11:13:38.155Z,35880.00
2018-08-30T11:14:59.789Z,36984.00
2018-08-30T11:16:00.684Z,65535.00
2018-08-30T11:17:00.550Z,65535.00
2018-08-30T11:18:00.263Z,65535.00
2018-08-30T11:18:59.968Z,65535.00
2018-08-30T11:20:00.786Z,65535.00
2018-08-30T11:21:43.738Z,65535.00
2018-08-30T11:22:43.534Z,65535.00
2018-08-30T11:23:43.585Z,65535.00
2018-08-30T11:25:05.055Z,31984.00
2018-08-30T11:26:27.830Z,25256.00
2018-08-30T11:28:32.089Z,19000.00
2018-08-30T11:29:33.137Z,15689.00
2018-08-30T11:30:33.352Z,12636.00
2018-08-30T11:31:33.060Z,10519.00
2018-08-30T11:32:33.381Z,9791.00
2018-08-30T11:33:33.097Z,9753.00
2018-08-30T11:34:32.773Z,9695.00
2018-08-30T11:35:32.430Z,9216.00
2018-08-30T11:36:33.013Z,8371.00
2018-08-30T11:37:32.747Z,7508.00
2018-08-30T11:38:34.605Z,5952.00
2018-08-30T11:39:32.356Z,3948.00
2018-08-30T11:40:33.026Z,2828.00
2018-08-30T11:42:16.117Z,3307.00
2018-08-30T11:43:16.803Z,4265.00
2018-08-30T11:44:16.685Z,5581.00
2018-08-30T11:45:38.236Z,6955.00
2018-08-30T11:47:23.575Z,8097.00
2018-08-30T11:48:24.468Z,9427.00
2018-08-30T11:49:24.661Z,11581.00
2018-08-30T11:50:25.097Z,14041.00
2018-08-30T11:51:23.956Z,17176.00
2018-08-30T11:52:23.838Z,20480.00
2018-08-30T11:53:23.851Z,23336.00
2018-08-30T11:54:23.672Z,26448.00
2018-08-30T11:55:24.928Z,29464.00
2018-08-30T11:56:23.825Z,44928.00
2018-08-30T11:57:46.034Z,48560.00
2018-08-30T11:58:47.425Z,29592.00
2018-08-30T11:59:46.342Z,27752.00
2018-08-30T12:00:46.199Z,26536.00
2018-08-30T12:01:46.613Z,26104.00
2018-08-30T12:02:47.029Z,26160.00
2018-08-30T12:04:08.567Z,26624.00
2018-08-30T12:05:09.528Z,27160.00
2018-08-30T12:06:09.443Z,28272.00
2018-08-30T12:07:09.302Z,30232.00
2018-08-30T12:08:31.118Z,33752.00
2018-08-30T12:09:31.387Z,36432.00
2018-08-30T12:10:31.564Z,44256.00
2018-08-30T12:11:32.059Z,46016.00
2018-08-30T12:13:18.369Z,58632.00
2018-08-30T12:14:19.338Z,39008.00
2018-08-30T12:15:19.286Z,39232.00
2018-08-30T12:16:19.684Z,41680.00
2018-08-30T12:17:18.727Z,65535.00
2018-08-30T12:18:18.885Z,65535.00
2018-08-30T12:19:18.981Z,65535.00
2018-08-30T12:20:18.989Z,54216.00
2018-08-30T12:21:18.944Z,46872.00
2018-08-30T12:22:18.932Z,51768.00
2018-08-30T12:23:19.135Z,39232.00
2018-08-30T12:24:19.139Z,65535.00
2018-08-30T12:25:18.955Z,65535.00
2018-08-30T12:26:18.785Z,65535.00
2018-08-30T12:27:18.633Z,65535.00
2018-08-30T12:28:18.611Z,65535.00
2018-08-30T12:29:18.831Z,46872.00
2018-08-30T12:30:20.532Z,65535.00
2018-08-30T12:31:20.200Z,65535.00
2018-08-30T12:32:19.552Z,44432.00
2018-08-30T12:33:18.464Z,65535.00
2018-08-30T12:34:18.520Z,65535.00
2018-08-30T12:35:19.339Z,65535.00
2018-08-30T12:36:18.628Z,65535.00
2018-08-30T12:37:18.572Z,40776.00
2018-08-30T12:38:18.837Z,23632.00
2018-08-30T12:39:20.194Z,11711.00
2018-08-30T12:40:19.185Z,7313.00
2018-08-30T12:41:19.216Z,7556.00
2018-08-30T12:43:02.698Z,13250.00
2018-08-30T12:44:03.036Z,18488.00
2018-08-30T12:45:03.051Z,24352.00
2018-08-30T12:46:03.120Z,30200.00
2018-08-30T12:47:04.421Z,33056.00
2018-08-30T12:48:03.464Z,55208.00
2018-08-30T12:49:04.248Z,35728.00
2018-08-30T12:50:03.404Z,30064.00
2018-08-30T12:51:03.468Z,31032.00
2018-08-30T12:52:03.348Z,30264.00
2018-08-30T12:53:03.438Z,32072.00
2018-08-30T12:54:02.879Z,38176.00
2018-08-30T12:55:02.954Z,27912.00
2018-08-30T12:56:03.032Z,14726.00
2018-08-30T12:57:03.325Z,8037.00
2018-08-30T12:58:02.618Z,5471.00
2018-08-30T12:59:02.779Z,4607.00
2018-08-30T13:00:04.081Z,4154.00
2018-08-30T13:01:11.642Z,3678.00
2018-08-30T13:02:03.142Z,3636.00
2018-08-30T13:03:03.465Z,4104.00
2018-08-30T13:04:02.974Z,4822.00
2018-08-30T13:05:05.591Z,5579.00
2018-08-30T13:06:03.375Z,6093.00
2018-08-30T13:07:02.927Z,5985.00
2018-08-30T13:08:03.417Z,5712.00
2018-08-30T13:09:03.821Z,5693.00
2018-08-30T13:10:03.546Z,5935.00
2018-08-30T13:11:03.339Z,5909.00
2018-08-30T13:12:02.896Z,5615.00
2018-08-30T13:13:25.547Z,4998.00
2018-08-30T13:14:26.645Z,4958.00
2018-08-30T13:15:25.376Z,5459.00